الصفحة الرئيسية
METAR-TAF:

METAR-TAF

مطار :

كينيل, كولومبيا البريطانية, كندا

دائرة عرض: 53-02N, خط طول: 122-31W, ارتفاع: 545 متر

مراقبة الطقس الحالي

تاريخ ووقت الإصدار 11 دقيقة قبل الساعة 18:16UTC
رياح هادئة
درجة الحرارة -2°درجة مئوية
الرطوبة 100%
ضغط 1015 hPa
الرؤية: 1.2 كم
غيوم قليلة على ارتفاع 1300 قدم
ملبد بالغيوم على ارتفاع 5000 قدم
غشاء

METAR: CYQZ 141816Z AUTO 00000KT 3/4SM BR FEW013 OVC050 M02/M02 A2996 RMK SLP175

زمن: 10:27 (18:27 UTC)

توقعات

تاريخ ووقت الإصدار 24 دقيقة قبل الساعة 18:03UTC
التوقعات صالحة من14 الساعة 18 UTC إلى 14 الساعة 24 UTC
ريح عقدة من الشمال
الرؤية: 0.2 كم
غيوم متفرقة على ارتفاع 1200 قدم
ملبد بالغيوم على ارتفاع 5000 قدم
ضباب مجمِّد
أصبح
من 14 الساعة 19 UTC إلى 14 الساعة 21 UTC
الرؤية: 10 كم
غيوم مفككة على ارتفاع 5000 قدم

TAF: CYQZ 141803Z 1418/1424 00000KT 1/8SM FZFG SCT012 OVC050 BECMG 1419/1421 P6SM NSW BKN050 RMK FCST BASED ON AUTO OBS. NXT FCST BY 141900Z

أرصاد الطقس والتوقعات من أكثر من 4000 مطار (تقارير الطقس للمطار METAR والتنبؤ بالطقس بالمطارTAF).

المحطات المتاحة هي النقط الصفراء والحمراء على الخريطة.

حرك المؤشر فوق النقطة لمعرفة اسم المحطة.

ثم انقر لمعرفة أرصاد وتوقعات الطقس.

لتغيير الخارطة: اضغط على الأزرار الخضراء مع رمز الصليب الأسود للتكبير. على الزر الأخضر مع شرطة للتصغير، أو على الأسهم الخضراء للخرائط المجاورة.


METAR-TAF: